sensor_id;sensor_type;location;lat;lon;timestamp;P1;durP1;ratioP1;P2;durP2;ratioP2
20069;SDS011;10195;50.868;4.382;2022-12-19T00:01:29;19.10;;;10.03;;
20069;SDS011;10195;50.868;4.382;2022-12-19T00:03:54;23.07;;;11.37;;
20069;SDS011;10195;50.868;4.382;2022-12-19T00:06:22;21.23;;;11.30;;
20069;SDS011;10195;50.868;4.382;2022-12-19T00:08:51;19.17;;;10.70;;
20069;SDS011;10195;50.868;4.382;2022-12-19T00:11:18;18.60;;;10.17;;
20069;SDS011;10195;50.868;4.382;2022-12-19T00:13:45;23.00;;;12.73;;
20069;SDS011;10195;50.868;4.382;2022-12-19T00:16:12;18.13;;;9.63;;
20069;SDS011;10195;50.868;4.382;2022-12-19T00:18:39;23.70;;;10.77;;
20069;SDS011;10195;50.868;4.382;2022-12-19T00:21:06;20.23;;;10.30;;
20069;SDS011;10195;50.868;4.382;2022-12-19T00:23:33;24.13;;;11.80;;
20069;SDS011;10195;50.868;4.382;2022-12-19T00:26:06;20.87;;;10.13;;
20069;SDS011;10195;50.868;4.382;2022-12-19T00:28:35;22.43;;;11.63;;
20069;SDS011;10195;50.868;4.382;2022-12-19T00:31:01;22.03;;;11.97;;
20069;SDS011;10195;50.868;4.382;2022-12-19T00:33:27;22.53;;;12.00;;
20069;SDS011;10195;50.868;4.382;2022-12-19T00:36:00;21.90;;;11.87;;
20069;SDS011;10195;50.868;4.382;2022-12-19T00:38:27;21.57;;;10.77;;
20069;SDS011;10195;50.868;4.382;2022-12-19T00:40:54;22.13;;;11.83;;
20069;SDS011;10195;50.868;4.382;2022-12-19T00:43:19;19.63;;;9.80;;
20069;SDS011;10195;50.868;4.382;2022-12-19T00:45:45;22.43;;;12.13;;
20069;SDS011;10195;50.868;4.382;2022-12-19T00:48:11;21.03;;;11.13;;
20069;SDS011;10195;50.868;4.382;2022-12-19T00:50:39;24.00;;;11.23;;
20069;SDS011;10195;50.868;4.382;2022-12-19T00:53:04;21.23;;;11.37;;
20069;SDS011;10195;50.868;4.382;2022-12-19T00:55:30;23.27;;;10.63;;
20069;SDS011;10195;50.868;4.382;2022-12-19T00:57:56;18.50;;;11.13;;
20069;SDS011;10195;50.868;4.382;2022-12-19T01:00:21;23.10;;;11.20;;
20069;SDS011;10195;50.868;4.382;2022-12-19T01:02:47;22.23;;;11.63;;
20069;SDS011;10195;50.868;4.382;2022-12-19T01:05:13;21.37;;;11.13;;
20069;SDS011;10195;50.868;4.382;2022-12-19T01:07:38;20.60;;;10.90;;
20069;SDS011;10195;50.868;4.382;2022-12-19T01:10:04;17.27;;;9.37;;
20069;SDS011;10195;50.868;4.382;2022-12-19T01:12:31;19.57;;;11.17;;
20069;SDS011;10195;50.868;4.382;2022-12-19T01:15:13;20.03;;;10.50;;
20069;SDS011;10195;50.868;4.382;2022-12-19T01:17:40;18.97;;;10.43;;
20069;SDS011;10195;50.868;4.382;2022-12-19T01:20:05;19.20;;;10.20;;
20069;SDS011;10195;50.868;4.382;2022-12-19T01:22:31;17.00;;;10.23;;
20069;SDS011;10195;50.868;4.382;2022-12-19T01:24:57;17.23;;;9.93;;
20069;SDS011;10195;50.868;4.382;2022-12-19T01:27:23;20.17;;;10.23;;
20069;SDS011;10195;50.868;4.382;2022-12-19T01:29:49;20.97;;;10.80;;
20069;SDS011;10195;50.868;4.382;2022-12-19T01:32:15;16.93;;;9.53;;
20069;SDS011;10195;50.868;4.382;2022-12-19T01:34:40;17.93;;;8.97;;
20069;SDS011;10195;50.868;4.382;2022-12-19T01:37:06;19.53;;;9.80;;
20069;SDS011;10195;50.868;4.382;2022-12-19T01:39:32;15.10;;;8.20;;
20069;SDS011;10195;50.868;4.382;2022-12-19T01:41:57;15.10;;;9.20;;
20069;SDS011;10195;50.868;4.382;2022-12-19T01:44:23;14.37;;;9.17;;
20069;SDS011;10195;50.868;4.382;2022-12-19T01:46:51;14.90;;;7.87;;
20069;SDS011;10195;50.868;4.382;2022-12-19T01:49:25;16.47;;;8.50;;
20069;SDS011;10195;50.868;4.382;2022-12-19T01:51:55;14.07;;;8.57;;
20069;SDS011;10195;50.868;4.382;2022-12-19T01:54:36;15.03;;;8.77;;
20069;SDS011;10195;50.868;4.382;2022-12-19T01:57:05;14.40;;;8.73;;
20069;SDS011;10195;50.868;4.382;2022-12-19T01:59:36;14.90;;;8.37;;
20069;SDS011;10195;50.868;4.382;2022-12-19T02:02:12;9.50;;;6.57;;
20069;SDS011;10195;50.868;4.382;2022-12-19T02:04:59;9.93;;;5.90;;
20069;SDS011;10195;50.868;4.382;2022-12-19T02:07:26;15.57;;;8.70;;
20069;SDS011;10195;50.868;4.382;2022-12-19T02:09:53;12.10;;;7.50;;
20069;SDS011;10195;50.868;4.382;2022-12-19T02:12:19;12.27;;;7.23;;
20069;SDS011;10195;50.868;4.382;2022-12-19T02:14:45;11.30;;;7.23;;
20069;SDS011;10195;50.868;4.382;2022-12-19T02:17:21;10.50;;;6.37;;
20069;SDS011;10195;50.868;4.382;2022-12-19T02:33:11;13.17;;;8.23;;
20069;SDS011;10195;50.868;4.382;2022-12-19T02:40:59;12.93;;;8.03;;
20069;SDS011;10195;50.868;4.382;2022-12-19T02:43:43;10.23;;;5.97;;
20069;SDS011;10195;50.868;4.382;2022-12-19T02:46:13;12.27;;;8.50;;
20069;SDS011;10195;50.868;4.382;2022-12-19T02:48:40;13.43;;;8.33;;
20069;SDS011;10195;50.868;4.382;2022-12-19T02:51:06;12.40;;;8.10;;
20069;SDS011;10195;50.868;4.382;2022-12-19T02:53:32;14.40;;;7.97;;
20069;SDS011;10195;50.868;4.382;2022-12-19T02:59:01;14.70;;;9.00;;
20069;SDS011;10195;50.868;4.382;2022-12-19T03:01:46;16.27;;;8.80;;
20069;SDS011;10195;50.868;4.382;2022-12-19T03:04:25;16.10;;;8.60;;
20069;SDS011;10195;50.868;4.382;2022-12-19T03:09:48;11.50;;;7.20;;
20069;SDS011;10195;50.868;4.382;2022-12-19T03:12:30;13.13;;;8.33;;
20069;SDS011;10195;50.868;4.382;2022-12-19T03:15:01;13.27;;;8.90;;
20069;SDS011;10195;50.868;4.382;2022-12-19T03:17:27;10.67;;;6.90;;
20069;SDS011;10195;50.868;4.382;2022-12-19T03:19:59;17.33;;;8.20;;
20069;SDS011;10195;50.868;4.382;2022-12-19T03:22:26;16.23;;;8.60;;
20069;SDS011;10195;50.868;4.382;2022-12-19T03:24:51;13.00;;;8.40;;
20069;SDS011;10195;50.868;4.382;2022-12-19T03:27:27;14.90;;;8.73;;
20069;SDS011;10195;50.868;4.382;2022-12-19T03:29:59;15.03;;;9.40;;
20069;SDS011;10195;50.868;4.382;2022-12-19T03:32:28;15.80;;;8.67;;
20069;SDS011;10195;50.868;4.382;2022-12-19T03:35:05;11.07;;;7.10;;
20069;SDS011;10195;50.868;4.382;2022-12-19T03:38:02;14.23;;;8.60;;
20069;SDS011;10195;50.868;4.382;2022-12-19T03:40:30;16.03;;;8.27;;
20069;SDS011;10195;50.868;4.382;2022-12-19T03:43:00;13.03;;;8.03;;
20069;SDS011;10195;50.868;4.382;2022-12-19T03:48:20;13.67;;;8.07;;
20069;SDS011;10195;50.868;4.382;2022-12-19T03:56:11;10.83;;;7.53;;
20069;SDS011;10195;50.868;4.382;2022-12-19T03:59:04;15.27;;;7.43;;
20069;SDS011;10195;50.868;4.382;2022-12-19T04:01:34;9.07;;;5.00;;
20069;SDS011;10195;50.868;4.382;2022-12-19T04:04:00;10.53;;;7.37;;
20069;SDS011;10195;50.868;4.382;2022-12-19T04:06:29;13.50;;;8.17;;
20069;SDS011;10195;50.868;4.382;2022-12-19T04:08:57;12.23;;;7.30;;
20069;SDS011;10195;50.868;4.382;2022-12-19T04:11:23;9.47;;;6.70;;
20069;SDS011;10195;50.868;4.382;2022-12-19T04:13:56;11.67;;;6.70;;
20069;SDS011;10195;50.868;4.382;2022-12-19T04:16:43;11.23;;;7.27;;
20069;SDS011;10195;50.868;4.382;2022-12-19T04:22:20;10.17;;;6.63;;
20069;SDS011;10195;50.868;4.382;2022-12-19T04:24:50;8.43;;;5.53;;
20069;SDS011;10195;50.868;4.382;2022-12-19T04:27:19;11.27;;;6.97;;
20069;SDS011;10195;50.868;4.382;2022-12-19T04:29:46;12.33;;;6.70;;
20069;SDS011;10195;50.868;4.382;2022-12-19T04:32:15;9.03;;;6.53;;
20069;SDS011;10195;50.868;4.382;2022-12-19T04:34:42;10.00;;;6.20;;
20069;SDS011;10195;50.868;4.382;2022-12-19T04:37:07;7.90;;;5.00;;
20069;SDS011;10195;50.868;4.382;2022-12-19T04:39:33;9.70;;;5.97;;
20069;SDS011;10195;50.868;4.382;2022-12-19T04:41:59;7.93;;;5.57;;
20069;SDS011;10195;50.868;4.382;2022-12-19T04:44:24;11.77;;;6.43;;
20069;SDS011;10195;50.868;4.382;2022-12-19T04:46:50;8.27;;;4.90;;
20069;SDS011;10195;50.868;4.382;2022-12-19T04:49:16;8.77;;;6.03;;
20069;SDS011;10195;50.868;4.382;2022-12-19T04:51:42;7.80;;;6.03;;
20069;SDS011;10195;50.868;4.382;2022-12-19T04:54:07;8.90;;;6.37;;
20069;SDS011;10195;50.868;4.382;2022-12-19T04:56:33;11.17;;;6.43;;
20069;SDS011;10195;50.868;4.382;2022-12-19T04:58:59;10.53;;;5.67;;
20069;SDS011;10195;50.868;4.382;2022-12-19T05:01:25;8.53;;;6.13;;
20069;SDS011;10195;50.868;4.382;2022-12-19T05:03:51;10.60;;;6.17;;
20069;SDS011;10195;50.868;4.382;2022-12-19T05:06:17;7.30;;;5.23;;
20069;SDS011;10195;50.868;4.382;2022-12-19T05:08:43;8.00;;;4.70;;
20069;SDS011;10195;50.868;4.382;2022-12-19T05:11:11;8.83;;;6.17;;
20069;SDS011;10195;50.868;4.382;2022-12-19T05:13:38;11.13;;;6.07;;
20069;SDS011;10195;50.868;4.382;2022-12-19T05:16:05;9.60;;;5.43;;
20069;SDS011;10195;50.868;4.382;2022-12-19T05:18:32;9.70;;;5.70;;
20069;SDS011;10195;50.868;4.382;2022-12-19T05:20:58;9.30;;;6.33;;
20069;SDS011;10195;50.868;4.382;2022-12-19T05:23:24;7.83;;;6.00;;
20069;SDS011;10195;50.868;4.382;2022-12-19T05:25:50;9.17;;;6.10;;
20069;SDS011;10195;50.868;4.382;2022-12-19T05:28:16;8.77;;;5.70;;
20069;SDS011;10195;50.868;4.382;2022-12-19T05:30:42;8.97;;;5.77;;
20069;SDS011;10195;50.868;4.382;2022-12-19T05:33:08;8.63;;;5.50;;
20069;SDS011;10195;50.868;4.382;2022-12-19T05:35:34;8.43;;;5.23;;
20069;SDS011;10195;50.868;4.382;2022-12-19T05:38:00;6.80;;;4.97;;
20069;SDS011;10195;50.868;4.382;2022-12-19T05:40:26;11.43;;;5.20;;
20069;SDS011;10195;50.868;4.382;2022-12-19T05:42:52;8.27;;;5.37;;
20069;SDS011;10195;50.868;4.382;2022-12-19T05:45:18;7.00;;;5.30;;
20069;SDS011;10195;50.868;4.382;2022-12-19T05:47:44;9.97;;;5.70;;
20069;SDS011;10195;50.868;4.382;2022-12-19T05:50:11;7.13;;;5.03;;
20069;SDS011;10195;50.868;4.382;2022-12-19T05:52:37;7.87;;;4.90;;
20069;SDS011;10195;50.868;4.382;2022-12-19T05:55:04;7.53;;;4.17;;
20069;SDS011;10195;50.868;4.382;2022-12-19T05:57:30;7.67;;;5.03;;
20069;SDS011;10195;50.868;4.382;2022-12-19T05:59:56;6.80;;;4.70;;
20069;SDS011;10195;50.868;4.382;2022-12-19T06:02:22;6.33;;;4.70;;
20069;SDS011;10195;50.868;4.382;2022-12-19T06:04:48;8.93;;;5.10;;
20069;SDS011;10195;50.868;4.382;2022-12-19T06:07:14;8.00;;;4.80;;
20069;SDS011;10195;50.868;4.382;2022-12-19T06:09:39;6.47;;;4.83;;
20069;SDS011;10195;50.868;4.382;2022-12-19T06:12:05;8.83;;;4.97;;
20069;SDS011;10195;50.868;4.382;2022-12-19T06:14:31;8.60;;;4.70;;
20069;SDS011;10195;50.868;4.382;2022-12-19T06:16:57;11.27;;;5.17;;
20069;SDS011;10195;50.868;4.382;2022-12-19T06:19:22;7.23;;;4.43;;
20069;SDS011;10195;50.868;4.382;2022-12-19T06:21:48;9.57;;;5.33;;
20069;SDS011;10195;50.868;4.382;2022-12-19T06:24:14;10.50;;;5.37;;
20069;SDS011;10195;50.868;4.382;2022-12-19T06:26:40;9.30;;;4.73;;
20069;SDS011;10195;50.868;4.382;2022-12-19T06:29:05;5.93;;;4.67;;
20069;SDS011;10195;50.868;4.382;2022-12-19T06:31:31;7.23;;;5.23;;
20069;SDS011;10195;50.868;4.382;2022-12-19T06:33:57;10.00;;;5.17;;
20069;SDS011;10195;50.868;4.382;2022-12-19T06:36:24;7.13;;;4.90;;
20069;SDS011;10195;50.868;4.382;2022-12-19T06:38:51;8.83;;;4.97;;
20069;SDS011;10195;50.868;4.382;2022-12-19T06:41:18;6.77;;;4.97;;
20069;SDS011;10195;50.868;4.382;2022-12-19T06:44:06;11.07;;;5.10;;
20069;SDS011;10195;50.868;4.382;2022-12-19T06:46:34;6.37;;;4.53;;
20069;SDS011;10195;50.868;4.382;2022-12-19T06:49:00;10.97;;;5.23;;
20069;SDS011;10195;50.868;4.382;2022-12-19T06:51:26;7.47;;;4.87;;
20069;SDS011;10195;50.868;4.382;2022-12-19T06:53:52;9.10;;;5.33;;
20069;SDS011;10195;50.868;4.382;2022-12-19T06:56:18;6.67;;;4.50;;
20069;SDS011;10195;50.868;4.382;2022-12-19T06:58:44;6.77;;;4.90;;
20069;SDS011;10195;50.868;4.382;2022-12-19T07:01:17;6.37;;;4.00;;
20069;SDS011;10195;50.868;4.382;2022-12-19T07:03:54;12.03;;;5.03;;
20069;SDS011;10195;50.868;4.382;2022-12-19T07:06:19;7.40;;;4.63;;
20069;SDS011;10195;50.868;4.382;2022-12-19T07:08:46;6.17;;;4.10;;
20069;SDS011;10195;50.868;4.382;2022-12-19T07:11:11;7.83;;;4.60;;
20069;SDS011;10195;50.868;4.382;2022-12-19T07:13:37;6.83;;;4.40;;
20069;SDS011;10195;50.868;4.382;2022-12-19T07:16:03;10.13;;;4.57;;
20069;SDS011;10195;50.868;4.382;2022-12-19T07:18:30;8.63;;;4.27;;
20069;SDS011;10195;50.868;4.382;2022-12-19T07:20:59;9.33;;;4.90;;
20069;SDS011;10195;50.868;4.382;2022-12-19T07:23:25;8.97;;;4.53;;
20069;SDS011;10195;50.868;4.382;2022-12-19T07:25:52;6.87;;;4.60;;
20069;SDS011;10195;50.868;4.382;2022-12-19T07:28:18;6.97;;;4.57;;
20069;SDS011;10195;50.868;4.382;2022-12-19T07:30:44;8.57;;;5.00;;
20069;SDS011;10195;50.868;4.382;2022-12-19T07:33:09;7.40;;;4.73;;
20069;SDS011;10195;50.868;4.382;2022-12-19T07:35:35;8.03;;;4.80;;
20069;SDS011;10195;50.868;4.382;2022-12-19T07:38:04;8.47;;;5.00;;
20069;SDS011;10195;50.868;4.382;2022-12-19T07:40:31;7.30;;;4.50;;
20069;SDS011;10195;50.868;4.382;2022-12-19T07:43:01;7.33;;;4.87;;
20069;SDS011;10195;50.868;4.382;2022-12-19T07:45:28;7.57;;;4.40;;
20069;SDS011;10195;50.868;4.382;2022-12-19T07:47:54;7.93;;;4.70;;
20069;SDS011;10195;50.868;4.382;2022-12-19T07:50:20;5.93;;;4.43;;
20069;SDS011;10195;50.868;4.382;2022-12-19T07:52:46;6.60;;;4.70;;
20069;SDS011;10195;50.868;4.382;2022-12-19T07:55:12;6.53;;;3.77;;
20069;SDS011;10195;50.868;4.382;2022-12-19T07:57:37;9.13;;;4.73;;
20069;SDS011;10195;50.868;4.382;2022-12-19T08:00:03;10.40;;;4.50;;
20069;SDS011;10195;50.868;4.382;2022-12-19T08:02:30;5.83;;;3.87;;
20069;SDS011;10195;50.868;4.382;2022-12-19T08:04:56;5.60;;;3.43;;
20069;SDS011;10195;50.868;4.382;2022-12-19T08:07:21;4.97;;;3.60;;
20069;SDS011;10195;50.868;4.382;2022-12-19T08:09:47;7.07;;;4.20;;
20069;SDS011;10195;50.868;4.382;2022-12-19T08:12:12;9.03;;;3.87;;
20069;SDS011;10195;50.868;4.382;2022-12-19T08:14:38;11.07;;;4.33;;
20069;SDS011;10195;50.868;4.382;2022-12-19T08:17:04;7.10;;;4.37;;
20069;SDS011;10195;50.868;4.382;2022-12-19T08:19:29;6.27;;;3.90;;
20069;SDS011;10195;50.868;4.382;2022-12-19T08:21:55;6.10;;;3.93;;
20069;SDS011;10195;50.868;4.382;2022-12-19T08:24:21;5.30;;;3.80;;
20069;SDS011;10195;50.868;4.382;2022-12-19T08:26:46;7.53;;;4.07;;
20069;SDS011;10195;50.868;4.382;2022-12-19T08:29:12;7.00;;;4.27;;
20069;SDS011;10195;50.868;4.382;2022-12-19T08:31:37;7.37;;;4.00;;
20069;SDS011;10195;50.868;4.382;2022-12-19T08:34:03;5.97;;;4.10;;
20069;SDS011;10195;50.868;4.382;2022-12-19T08:36:29;11.17;;;4.67;;
20069;SDS011;10195;50.868;4.382;2022-12-19T08:38:54;6.60;;;3.97;;
20069;SDS011;10195;50.868;4.382;2022-12-19T08:41:20;7.27;;;3.97;;
20069;SDS011;10195;50.868;4.382;2022-12-19T08:43:50;7.80;;;3.67;;
20069;SDS011;10195;50.868;4.382;2022-12-19T08:46:17;8.07;;;3.97;;
20069;SDS011;10195;50.868;4.382;2022-12-19T08:48:44;10.87;;;4.27;;
20069;SDS011;10195;50.868;4.382;2022-12-19T08:51:10;6.43;;;3.73;;
20069;SDS011;10195;50.868;4.382;2022-12-19T08:53:38;8.00;;;4.03;;
20069;SDS011;10195;50.868;4.382;2022-12-19T08:56:06;6.07;;;3.97;;
20069;SDS011;10195;50.868;4.382;2022-12-19T08:58:35;7.27;;;3.80;;
20069;SDS011;10195;50.868;4.382;2022-12-19T09:01:01;8.20;;;3.73;;
20069;SDS011;10195;50.868;4.382;2022-12-19T09:03:29;5.97;;;3.53;;
20069;SDS011;10195;50.868;4.382;2022-12-19T09:05:56;5.50;;;3.53;;
20069;SDS011;10195;50.868;4.382;2022-12-19T09:08:22;7.67;;;3.63;;
20069;SDS011;10195;50.868;4.382;2022-12-19T09:10:48;7.50;;;3.87;;
20069;SDS011;10195;50.868;4.382;2022-12-19T09:13:14;7.30;;;4.10;;
20069;SDS011;10195;50.868;4.382;2022-12-19T09:15:40;8.47;;;3.90;;
20069;SDS011;10195;50.868;4.382;2022-12-19T09:18:05;6.17;;;3.70;;
20069;SDS011;10195;50.868;4.382;2022-12-19T09:20:31;5.57;;;3.73;;
20069;SDS011;10195;50.868;4.382;2022-12-19T09:22:57;6.77;;;3.80;;
20069;SDS011;10195;50.868;4.382;2022-12-19T09:25:22;8.57;;;4.33;;
20069;SDS011;10195;50.868;4.382;2022-12-19T09:27:48;5.47;;;3.80;;
20069;SDS011;10195;50.868;4.382;2022-12-19T09:30:14;4.93;;;3.53;;
20069;SDS011;10195;50.868;4.382;2022-12-19T09:32:39;5.63;;;3.03;;
20069;SDS011;10195;50.868;4.382;2022-12-19T09:35:05;10.00;;;4.10;;
20069;SDS011;10195;50.868;4.382;2022-12-19T09:37:32;6.23;;;4.00;;
20069;SDS011;10195;50.868;4.382;2022-12-19T09:39:57;7.37;;;4.00;;
20069;SDS011;10195;50.868;4.382;2022-12-19T09:47:55;8.17;;;3.53;;
20069;SDS011;10195;50.868;4.382;2022-12-19T09:50:42;5.33;;;3.43;;
20069;SDS011;10195;50.868;4.382;2022-12-19T09:53:24;8.37;;;4.10;;
20069;SDS011;10195;50.868;4.382;2022-12-19T09:55:55;6.93;;;4.10;;
20069;SDS011;10195;50.868;4.382;2022-12-19T10:01:16;7.13;;;4.20;;
20069;SDS011;10195;50.868;4.382;2022-12-19T10:03:57;5.47;;;3.77;;
20069;SDS011;10195;50.868;4.382;2022-12-19T10:06:34;10.27;;;3.77;;
20069;SDS011;10195;50.868;4.382;2022-12-19T10:09:00;9.40;;;3.83;;
20069;SDS011;10195;50.868;4.382;2022-12-19T10:11:31;5.53;;;3.50;;
20069;SDS011;10195;50.868;4.382;2022-12-19T10:14:27;5.87;;;4.10;;
20069;SDS011;10195;50.868;4.382;2022-12-19T10:25:59;6.97;;;3.47;;
20069;SDS011;10195;50.868;4.382;2022-12-19T10:34:22;4.10;;;2.90;;
20069;SDS011;10195;50.868;4.382;2022-12-19T10:36:57;7.47;;;3.50;;
20069;SDS011;10195;50.868;4.382;2022-12-19T10:39:30;7.67;;;3.60;;
20069;SDS011;10195;50.868;4.382;2022-12-19T10:42:09;7.97;;;3.37;;
20069;SDS011;10195;50.868;4.382;2022-12-19T10:44:56;5.13;;;3.00;;
20069;SDS011;10195;50.868;4.382;2022-12-19T10:47:26;4.73;;;3.00;;
20069;SDS011;10195;50.868;4.382;2022-12-19T10:49:52;4.30;;;2.90;;
20069;SDS011;10195;50.868;4.382;2022-12-19T10:52:44;4.90;;;3.07;;
20069;SDS011;10195;50.868;4.382;2022-12-19T10:55:20;6.33;;;2.60;;
20069;SDS011;10195;50.868;4.382;2022-12-19T10:57:59;5.20;;;2.50;;
20069;SDS011;10195;50.868;4.382;2022-12-19T11:00:35;9.47;;;2.50;;
20069;SDS011;10195;50.868;4.382;2022-12-19T11:03:09;4.03;;;2.70;;
20069;SDS011;10195;50.868;4.382;2022-12-19T11:05:48;4.33;;;2.90;;
20069;SDS011;10195;50.868;4.382;2022-12-19T11:08:18;7.97;;;3.13;;
20069;SDS011;10195;50.868;4.382;2022-12-19T11:10:50;4.67;;;2.53;;
20069;SDS011;10195;50.868;4.382;2022-12-19T11:16:02;6.17;;;3.03;;
20069;SDS011;10195;50.868;4.382;2022-12-19T11:18:34;6.43;;;2.73;;
20069;SDS011;10195;50.868;4.382;2022-12-19T11:23:51;7.93;;;2.50;;
20069;SDS011;10195;50.868;4.382;2022-12-19T11:26:43;4.70;;;2.70;;
20069;SDS011;10195;50.868;4.382;2022-12-19T11:29:27;5.40;;;2.90;;
20069;SDS011;10195;50.868;4.382;2022-12-19T11:32:23;5.70;;;2.57;;
20069;SDS011;10195;50.868;4.382;2022-12-19T11:35:03;5.73;;;2.43;;
20069;SDS011;10195;50.868;4.382;2022-12-19T11:37:53;9.97;;;4.87;;
20069;SDS011;10195;50.868;4.382;2022-12-19T11:48:44;5.17;;;3.07;;
20069;SDS011;10195;50.868;4.382;2022-12-19T11:51:20;5.03;;;2.57;;
20069;SDS011;10195;50.868;4.382;2022-12-19T11:56:55;6.33;;;3.27;;
20069;SDS011;10195;50.868;4.382;2022-12-19T12:02:14;6.27;;;2.60;;
20069;SDS011;10195;50.868;4.382;2022-12-19T12:07:44;8.90;;;2.90;;
20069;SDS011;10195;50.868;4.382;2022-12-19T12:10:21;5.13;;;2.70;;
20069;SDS011;10195;50.868;4.382;2022-12-19T12:24:52;5.03;;;2.83;;
20069;SDS011;10195;50.868;4.382;2022-12-19T12:29:40;3.60;;;2.60;;
20069;SDS011;10195;50.868;4.382;2022-12-19T12:35:03;3.53;;;2.30;;
20069;SDS011;10195;50.868;4.382;2022-12-19T12:46:34;7.17;;;4.07;;
20069;SDS011;10195;50.868;4.382;2022-12-19T12:49:04;11.40;;;6.07;;
20069;SDS011;10195;50.868;4.382;2022-12-19T12:51:46;7.40;;;3.90;;
20069;SDS011;10195;50.868;4.382;2022-12-19T12:54:13;8.57;;;2.67;;
20069;SDS011;10195;50.868;4.382;2022-12-19T12:56:39;7.00;;;2.37;;
20069;SDS011;10195;50.868;4.382;2022-12-19T12:59:39;4.07;;;2.50;;
20069;SDS011;10195;50.868;4.382;2022-12-19T13:01:59;4.13;;;2.53;;
20069;SDS011;10195;50.868;4.382;2022-12-19T13:04:35;2.53;;;2.20;;
20069;SDS011;10195;50.868;4.382;2022-12-19T13:07:12;4.97;;;2.40;;
20069;SDS011;10195;50.868;4.382;2022-12-19T13:09:38;5.43;;;2.60;;
20069;SDS011;10195;50.868;4.382;2022-12-19T13:23:03;8.53;;;2.83;;
20069;SDS011;10195;50.868;4.382;2022-12-19T13:30:27;4.23;;;1.80;;
20069;SDS011;10195;50.868;4.382;2022-12-19T13:37:49;5.67;;;2.53;;
20069;SDS011;10195;50.868;4.382;2022-12-19T13:40:31;3.93;;;2.30;;
20069;SDS011;10195;50.868;4.382;2022-12-19T13:45:54;5.83;;;2.47;;
20069;SDS011;10195;50.868;4.382;2022-12-19T13:48:34;3.20;;;2.30;;
20069;SDS011;10195;50.868;4.382;2022-12-19T13:51:21;5.97;;;2.60;;
20069;SDS011;10195;50.868;4.382;2022-12-19T13:53:50;5.90;;;2.73;;
20069;SDS011;10195;50.868;4.382;2022-12-19T13:56:20;3.83;;;2.60;;
20069;SDS011;10195;50.868;4.382;2022-12-19T13:58:59;4.17;;;2.30;;
20069;SDS011;10195;50.868;4.382;2022-12-19T14:01:29;6.77;;;2.30;;
20069;SDS011;10195;50.868;4.382;2022-12-19T14:03:58;5.10;;;3.03;;
20069;SDS011;10195;50.868;4.382;2022-12-19T14:06:30;3.23;;;2.37;;
20069;SDS011;10195;50.868;4.382;2022-12-19T14:09:19;3.70;;;2.47;;
20069;SDS011;10195;50.868;4.382;2022-12-19T14:11:48;4.47;;;2.60;;
20069;SDS011;10195;50.868;4.382;2022-12-19T14:14:16;5.03;;;2.67;;
20069;SDS011;10195;50.868;4.382;2022-12-19T14:17:10;3.03;;;2.30;;
20069;SDS011;10195;50.868;4.382;2022-12-19T14:19:45;4.33;;;2.33;;
20069;SDS011;10195;50.868;4.382;2022-12-19T14:24:51;7.30;;;2.80;;
20069;SDS011;10195;50.868;4.382;2022-12-19T14:30:05;5.93;;;2.40;;
20069;SDS011;10195;50.868;4.382;2022-12-19T14:32:39;4.40;;;2.47;;
20069;SDS011;10195;50.868;4.382;2022-12-19T14:35:07;5.00;;;2.70;;
20069;SDS011;10195;50.868;4.382;2022-12-19T14:37:37;5.13;;;2.80;;
20069;SDS011;10195;50.868;4.382;2022-12-19T14:40:18;5.37;;;2.50;;
20069;SDS011;10195;50.868;4.382;2022-12-19T14:42:50;6.13;;;2.57;;
20069;SDS011;10195;50.868;4.382;2022-12-19T14:45:39;4.80;;;3.03;;
20069;SDS011;10195;50.868;4.382;2022-12-19T14:51:14;4.93;;;2.83;;
20069;SDS011;10195;50.868;4.382;2022-12-19T14:54:13;6.20;;;2.50;;
20069;SDS011;10195;50.868;4.382;2022-12-19T14:56:43;5.80;;;2.30;;
20069;SDS011;10195;50.868;4.382;2022-12-19T15:01:48;4.73;;;2.60;;
20069;SDS011;10195;50.868;4.382;2022-12-19T15:04:39;7.13;;;2.87;;
20069;SDS011;10195;50.868;4.382;2022-12-19T15:07:12;3.70;;;2.67;;
20069;SDS011;10195;50.868;4.382;2022-12-19T15:12:15;6.63;;;2.70;;
20069;SDS011;10195;50.868;4.382;2022-12-19T15:17:48;4.47;;;2.53;;
20069;SDS011;10195;50.868;4.382;2022-12-19T15:20:17;8.60;;;2.67;;
20069;SDS011;10195;50.868;4.382;2022-12-19T15:22:43;5.77;;;3.00;;
20069;SDS011;10195;50.868;4.382;2022-12-19T15:25:15;5.47;;;2.47;;
20069;SDS011;10195;50.868;4.382;2022-12-19T15:27:43;5.57;;;2.77;;
20069;SDS011;10195;50.868;4.382;2022-12-19T15:30:14;5.00;;;2.70;;
20069;SDS011;10195;50.868;4.382;2022-12-19T15:32:45;6.43;;;2.60;;
20069;SDS011;10195;50.868;4.382;2022-12-19T15:35:13;6.13;;;2.87;;
20069;SDS011;10195;50.868;4.382;2022-12-19T15:37:40;3.53;;;2.37;;
20069;SDS011;10195;50.868;4.382;2022-12-19T15:40:06;6.00;;;2.40;;
20069;SDS011;10195;50.868;4.382;2022-12-19T15:42:39;5.67;;;2.67;;
20069;SDS011;10195;50.868;4.382;2022-12-19T15:45:05;4.87;;;2.40;;
20069;SDS011;10195;50.868;4.382;2022-12-19T15:47:32;6.50;;;2.43;;
20069;SDS011;10195;50.868;4.382;2022-12-19T15:50:00;7.43;;;2.77;;
20069;SDS011;10195;50.868;4.382;2022-12-19T15:52:29;4.37;;;2.50;;
20069;SDS011;10195;50.868;4.382;2022-12-19T15:54:55;7.77;;;2.97;;
20069;SDS011;10195;50.868;4.382;2022-12-19T15:57:37;7.93;;;2.53;;
20069;SDS011;10195;50.868;4.382;2022-12-19T16:00:06;5.67;;;3.00;;
20069;SDS011;10195;50.868;4.382;2022-12-19T16:02:40;7.23;;;2.80;;
20069;SDS011;10195;50.868;4.382;2022-12-19T16:05:07;4.20;;;1.87;;
20069;SDS011;10195;50.868;4.382;2022-12-19T16:07:34;4.17;;;2.53;;
20069;SDS011;10195;50.868;4.382;2022-12-19T16:10:00;6.67;;;2.70;;
20069;SDS011;10195;50.868;4.382;2022-12-19T16:12:30;4.03;;;2.37;;
20069;SDS011;10195;50.868;4.382;2022-12-19T16:14:59;3.77;;;2.50;;
20069;SDS011;10195;50.868;4.382;2022-12-19T16:17:26;5.23;;;2.70;;
20069;SDS011;10195;50.868;4.382;2022-12-19T16:19:55;5.53;;;2.83;;
20069;SDS011;10195;50.868;4.382;2022-12-19T16:22:23;12.20;;;3.97;;
20069;SDS011;10195;50.868;4.382;2022-12-19T16:24:50;9.70;;;2.80;;
20069;SDS011;10195;50.868;4.382;2022-12-19T16:27:26;6.07;;;2.60;;
20069;SDS011;10195;50.868;4.382;2022-12-19T16:29:54;4.00;;;2.50;;
20069;SDS011;10195;50.868;4.382;2022-12-19T16:32:22;5.30;;;2.50;;
20069;SDS011;10195;50.868;4.382;2022-12-19T16:34:48;3.73;;;2.53;;
20069;SDS011;10195;50.868;4.382;2022-12-19T16:37:15;7.53;;;3.20;;
20069;SDS011;10195;50.868;4.382;2022-12-19T16:39:40;6.60;;;3.00;;
20069;SDS011;10195;50.868;4.382;2022-12-19T16:42:16;4.77;;;3.07;;
20069;SDS011;10195;50.868;4.382;2022-12-19T16:44:42;5.70;;;2.90;;
20069;SDS011;10195;50.868;4.382;2022-12-19T16:47:15;10.97;;;2.90;;
20069;SDS011;10195;50.868;4.382;2022-12-19T16:49:42;4.13;;;2.60;;
20069;SDS011;10195;50.868;4.382;2022-12-19T16:52:08;6.70;;;3.00;;
20069;SDS011;10195;50.868;4.382;2022-12-19T16:54:34;5.43;;;2.77;;
20069;SDS011;10195;50.868;4.382;2022-12-19T16:57:00;5.77;;;2.80;;
20069;SDS011;10195;50.868;4.382;2022-12-19T16:59:34;14.33;;;3.10;;
20069;SDS011;10195;50.868;4.382;2022-12-19T17:02:28;4.47;;;2.50;;
20069;SDS011;10195;50.868;4.382;2022-12-19T17:05:06;4.73;;;2.53;;
20069;SDS011;10195;50.868;4.382;2022-12-19T17:07:38;6.80;;;2.60;;
20069;SDS011;10195;50.868;4.382;2022-12-19T17:10:04;6.20;;;2.70;;
20069;SDS011;10195;50.868;4.382;2022-12-19T17:12:30;5.60;;;2.70;;
20069;SDS011;10195;50.868;4.382;2022-12-19T17:14:55;4.80;;;2.60;;
20069;SDS011;10195;50.868;4.382;2022-12-19T17:17:23;6.37;;;3.00;;
20069;SDS011;10195;50.868;4.382;2022-12-19T17:19:48;7.13;;;2.77;;
20069;SDS011;10195;50.868;4.382;2022-12-19T17:22:15;3.87;;;2.50;;
20069;SDS011;10195;50.868;4.382;2022-12-19T17:24:46;4.53;;;2.87;;
20069;SDS011;10195;50.868;4.382;2022-12-19T17:27:12;5.67;;;2.83;;